Queen Of The West — WDF4506 — position and weather

sailwx.info

Track history (hours):
 
Tides and Currents Weather Stations Pressure Air Temp Water Temp Dewpoint Dewpoint Depression Visibility Wind Speed Wind Dir Waves Ship Positions

Queen Of The West

Owner: American Cruise Lines Inc., Delmar, DE. More information available from US FCC via Universal Licensing System and Coast Guard Vessel Documentation Center.

Last reported at 2017-Oct-17 16:31 UTC. Time now 2017-Oct-17 16:42 UTC.
Position N 46°11' W 123°49'.

Length 19 m; draft 2 m.

Type: Passenger vessel. MMSI: 2548262.

Date/timePositionNaut miles runAvg speedWind from/ knotsBaromVisibWave heightAir tempDewpointWater temp
2017-Oct-17 16:31N 46°11' W 123°49'0 0.0
2017-Oct-17 16:01N 46°11' W 123°49'0 0.0
2017-Oct-17 15:30N 46°11' W 123°49'0 0.0
2017-Oct-17 15:00N 46°11' W 123°49'0 0.0
2017-Oct-17 14:30N 46°11' W 123°49'0 0.0
2017-Oct-17 14:00N 46°11' W 123°49'0 0.0
2017-Oct-17 13:30N 46°11' W 123°49'0 0.0
2017-Oct-17 13:00N 46°11' W 123°49'0 0.0
2017-Oct-17 12:30N 46°11' W 123°49'0 0.0
2017-Oct-17 12:00N 46°11' W 123°49'0 0.0
2017-Oct-17 11:30N 46°11' W 123°49'0 0.0
2017-Oct-17 11:00N 46°11' W 123°49'0 0.0
2017-Oct-17 10:30N 46°11' W 123°49'0 0.0
2017-Oct-17 10:00N 46°11' W 123°49'0 0.0
2017-Oct-17 09:31N 46°11' W 123°49'0 0.0
2017-Oct-17 09:00N 46°11' W 123°49'0 0.0
2017-Oct-17 08:30N 46°11' W 123°49'0 0.0
2017-Oct-17 08:00N 46°11' W 123°49'0 0.0
2017-Oct-17 07:30N 46°11' W 123°49'0 0.0
2017-Oct-17 07:00N 46°11' W 123°49'0 0.0
2017-Oct-17 06:30N 46°11' W 123°49'1 1.0
2017-Oct-17 06:00N 46°12' W 123°49'4 8.3
2017-Oct-17 05:30N 46°14' W 123°44'4 8.7
2017-Oct-17 05:00N 46°16' W 123°38'5 9.2
2017-Oct-17 04:30N 46°16' W 123°31'4 8.9
2017-Oct-17 04:01N 46°14' W 123°26'510.6
2017-Oct-17 03:30N 46°09' W 123°23'611.6
2017-Oct-17 03:00N 46°10' W 123°15'611.3
2017-Oct-17 02:30N 46°11' W 123°07'611.9
2017-Oct-17 02:01N 46°07' W 122°60'611.6
2017-Oct-17 01:30N 46°04' W 122°53'4 8.7
2017-Oct-17 01:00N 45°60' W 122°51'0 0.0
2017-Oct-17 00:31N 45°60' W 122°51'0 0.0
2017-Oct-17 00:00N 45°60' W 122°51'4 7.4
2017-Oct-16 23:30N 45°56' W 122°48'510.0
2017-Oct-16 23:00N 45°52' W 122°47'5 9.4
2017-Oct-16 22:31N 45°47' W 122°46'5 9.6
2017-Oct-16 22:01N 45°42' W 122°46'4 8.7
2017-Oct-16 21:30N 45°38' W 122°43'2 4.7
2017-Oct-16 21:01N 45°37' W 122°40'0 0.0
2017-Oct-16 20:30N 45°37' W 122°40'0 0.0
2017-Oct-16 20:00N 45°37' W 122°40'0 0.0
2017-Oct-16 19:31N 45°37' W 122°40'0 0.0
2017-Oct-16 19:00N 45°37' W 122°40'0 0.0
2017-Oct-16 18:31N 45°37' W 122°40'0 0.0
2017-Oct-16 18:00N 45°37' W 122°40'0 0.0
2017-Oct-16 17:30N 45°37' W 122°40'0 0.0
2017-Oct-16 17:00N 45°37' W 122°40'3 7.0
2017-Oct-16 16:30N 45°36' W 122°36'611.4
2017-Oct-16 16:00N 45°34' W 122°28'510.3
2017-Oct-16 15:30N 45°33' W 122°21'510.4
2017-Oct-16 15:00N 45°34' W 122°13'6 9.5
2017-Oct-16 14:21N 45°36' W 122°05'  
2017-Oct-08 13:11N 45°37' W 121°59'1 6.8
2017-Oct-08 13:01N 45°37' W 122°01'4 8.7
2017-Oct-08 12:30N 45°35' W 122°07'1 2.2
2017-Oct-08 12:00N 45°35' W 122°08'3 5.6
2017-Oct-08 11:30N 45°34' W 122°12'3 6.9
2017-Oct-08 11:00N 45°33' W 122°16'3 6.7
2017-Oct-08 10:31N 45°34' W 122°21'3 6.0
2017-Oct-08 10:01N 45°34' W 122°25'3 5.9
2017-Oct-08 09:31N 45°35' W 122°29'3 6.5
2017-Oct-08 09:00N 45°36' W 122°34'4 7.0
2017-Oct-08 08:31N 45°37' W 122°39'4 7.0
2017-Oct-08 08:01N 45°38' W 122°43'4 7.0
2017-Oct-08 07:30N 45°41' W 122°47'4 7.2
2017-Oct-08 07:00N 45°44' W 122°46'4 7.2
2017-Oct-08 06:30N 45°48' W 122°47'3 6.8
2017-Oct-08 06:00N 45°51' W 122°47'3 6.8
2017-Oct-08 05:30N 45°54' W 122°49'3 6.9
2017-Oct-08 05:00N 45°58' W 122°49'2 4.3
2017-Oct-08 04:30N 45°60' W 122°51'0 0.0
2017-Oct-08 04:00N 45°60' W 122°51'0 0.0
2017-Oct-08 03:20N 45°60' W 122°51'0 0.0
2017-Oct-08 03:00N 45°60' W 122°51'0 0.0
2017-Oct-08 02:30N 45°60' W 122°51'0 0.0
2017-Oct-08 02:00N 45°60' W 122°51'0 0.0
2017-Oct-08 01:30N 45°60' W 122°51'0 0.0
2017-Oct-08 00:58N 45°60' W 122°51'0 0.0
2017-Oct-08 00:30N 45°60' W 122°51'0 0.0
2017-Oct-08 00:00N 45°60' W 122°51'0 0.0
2017-Oct-07 23:31N 45°60' W 122°51'0 0.0
2017-Oct-07 23:00N 45°60' W 122°51'0 0.0
2017-Oct-07 22:31N 45°60' W 122°51'0 0.0
2017-Oct-07 22:00N 45°60' W 122°51'0 0.0
2017-Oct-07 21:30N 45°60' W 122°51'0 0.0
2017-Oct-07 21:00N 45°60' W 122°51'0 0.0
2017-Oct-07 20:30N 45°60' W 122°51'0 0.0
2017-Oct-07 20:00N 45°60' W 122°51'0 0.0
2017-Oct-07 19:30N 45°60' W 122°51'1 1.2
2017-Oct-07 19:00N 46°00' W 122°51'3 6.7
2017-Oct-07 18:30N 46°03' W 122°53'3 6.4
2017-Oct-07 18:00N 46°06' W 122°56'3 6.7
2017-Oct-07 17:30N 46°08' W 122°60'  
Track history (hours):
 
Tides and Currents Weather Stations Pressure Air Temp Water Temp Dewpoint Dewpoint Depression Visibility Wind Speed Wind Dir Waves Ship Positions

Queen Of The West

Owner: American Cruise Lines Inc., Delmar, DE. More information available from US FCC via Universal Licensing System and Coast Guard Vessel Documentation Center.

Last reported at 2017-Oct-17 16:31 UTC. Time now 2017-Oct-17 16:42 UTC.
Position N 46°11' W 123°49'.

Length 19 m; draft 2 m.

Type: Passenger vessel. MMSI: 2548262.

Date/timePositionNaut miles runAvg speedWind from/ knotsBaromVisibWave heightAir tempDewpointWater temp
2017-Oct-17 16:31N 46°11' W 123°49'0 0.0
2017-Oct-17 16:01N 46°11' W 123°49'0 0.0
2017-Oct-17 15:30N 46°11' W 123°49'0 0.0
2017-Oct-17 15:00N 46°11' W 123°49'0 0.0
2017-Oct-17 14:30N 46°11' W 123°49'0 0.0
2017-Oct-17 14:00N 46°11' W 123°49'0 0.0
2017-Oct-17 13:30N 46°11' W 123°49'0 0.0
2017-Oct-17 13:00N 46°11' W 123°49'0 0.0
2017-Oct-17 12:30N 46°11' W 123°49'0 0.0
2017-Oct-17 12:00N 46°11' W 123°49'0 0.0
2017-Oct-17 11:30N 46°11' W 123°49'0 0.0
2017-Oct-17 11:00N 46°11' W 123°49'0 0.0
2017-Oct-17 10:30N 46°11' W 123°49'0 0.0
2017-Oct-17 10:00N 46°11' W 123°49'0 0.0
2017-Oct-17 09:31N 46°11' W 123°49'0 0.0
2017-Oct-17 09:00N 46°11' W 123°49'0 0.0
2017-Oct-17 08:30N 46°11' W 123°49'0 0.0
2017-Oct-17 08:00N 46°11' W 123°49'0 0.0
2017-Oct-17 07:30N 46°11' W 123°49'0 0.0
2017-Oct-17 07:00N 46°11' W 123°49'0 0.0
2017-Oct-17 06:30N 46°11' W 123°49'1 1.0
2017-Oct-17 06:00N 46°12' W 123°49'4 8.3
2017-Oct-17 05:30N 46°14' W 123°44'4 8.7
2017-Oct-17 05:00N 46°16' W 123°38'5 9.2
2017-Oct-17 04:30N 46°16' W 123°31'4 8.9
2017-Oct-17 04:01N 46°14' W 123°26'510.6
2017-Oct-17 03:30N 46°09' W 123°23'611.6
2017-Oct-17 03:00N 46°10' W 123°15'611.3
2017-Oct-17 02:30N 46°11' W 123°07'611.9
2017-Oct-17 02:01N 46°07' W 122°60'611.6
2017-Oct-17 01:30N 46°04' W 122°53'4 8.7
2017-Oct-17 01:00N 45°60' W 122°51'0 0.0
2017-Oct-17 00:31N 45°60' W 122°51'0 0.0
2017-Oct-17 00:00N 45°60' W 122°51'4 7.4
2017-Oct-16 23:30N 45°56' W 122°48'510.0
2017-Oct-16 23:00N 45°52' W 122°47'5 9.4
2017-Oct-16 22:31N 45°47' W 122°46'5 9.6
2017-Oct-16 22:01N 45°42' W 122°46'4 8.7
2017-Oct-16 21:30N 45°38' W 122°43'2 4.7
2017-Oct-16 21:01N 45°37' W 122°40'0 0.0
2017-Oct-16 20:30N 45°37' W 122°40'0 0.0
2017-Oct-16 20:00N 45°37' W 122°40'0 0.0
2017-Oct-16 19:31N 45°37' W 122°40'0 0.0
2017-Oct-16 19:00N 45°37' W 122°40'0 0.0
2017-Oct-16 18:31N 45°37' W 122°40'0 0.0
2017-Oct-16 18:00N 45°37' W 122°40'0 0.0
2017-Oct-16 17:30N 45°37' W 122°40'0 0.0
2017-Oct-16 17:00N 45°37' W 122°40'3 7.0
2017-Oct-16 16:30N 45°36' W 122°36'611.4
2017-Oct-16 16:00N 45°34' W 122°28'510.3
2017-Oct-16 15:30N 45°33' W 122°21'510.4
2017-Oct-16 15:00N 45°34' W 122°13'6 9.5
2017-Oct-16 14:21N 45°36' W 122°05'  
2017-Oct-08 13:11N 45°37' W 121°59'1 6.8
2017-Oct-08 13:01N 45°37' W 122°01'4 8.7
2017-Oct-08 12:30N 45°35' W 122°07'1 2.2
2017-Oct-08 12:00N 45°35' W 122°08'3 5.6
2017-Oct-08 11:30N 45°34' W 122°12'3 6.9
2017-Oct-08 11:00N 45°33' W 122°16'3 6.7
2017-Oct-08 10:31N 45°34' W 122°21'3 6.0
2017-Oct-08 10:01N 45°34' W 122°25'3 5.9
2017-Oct-08 09:31N 45°35' W 122°29'3 6.5
2017-Oct-08 09:00N 45°36' W 122°34'4 7.0
2017-Oct-08 08:31N 45°37' W 122°39'4 7.0
2017-Oct-08 08:01N 45°38' W 122°43'4 7.0
2017-Oct-08 07:30N 45°41' W 122°47'4 7.2
2017-Oct-08 07:00N 45°44' W 122°46'4 7.2
2017-Oct-08 06:30N 45°48' W 122°47'3 6.8
2017-Oct-08 06:00N 45°51' W 122°47'3 6.8
2017-Oct-08 05:30N 45°54' W 122°49'3 6.9
2017-Oct-08 05:00N 45°58' W 122°49'2 4.3
2017-Oct-08 04:30N 45°60' W 122°51'0 0.0
2017-Oct-08 04:00N 45°60' W 122°51'0 0.0
2017-Oct-08 03:20N 45°60' W 122°51'0 0.0
2017-Oct-08 03:00N 45°60' W 122°51'0 0.0
2017-Oct-08 02:30N 45°60' W 122°51'0 0.0
2017-Oct-08 02:00N 45°60' W 122°51'0 0.0
2017-Oct-08 01:30N 45°60' W 122°51'0 0.0
2017-Oct-08 00:58N 45°60' W 122°51'0 0.0
2017-Oct-08 00:30N 45°60' W 122°51'0 0.0
2017-Oct-08 00:00N 45°60' W 122°51'0 0.0
2017-Oct-07 23:31N 45°60' W 122°51'0 0.0
2017-Oct-07 23:00N 45°60' W 122°51'0 0.0
2017-Oct-07 22:31N 45°60' W 122°51'0 0.0
2017-Oct-07 22:00N 45°60' W 122°51'0 0.0
2017-Oct-07 21:30N 45°60' W 122°51'0 0.0
2017-Oct-07 21:00N 45°60' W 122°51'0 0.0
2017-Oct-07 20:30N 45°60' W 122°51'0 0.0
2017-Oct-07 20:00N 45°60' W 122°51'0 0.0
2017-Oct-07 19:30N 45°60' W 122°51'1 1.2
2017-Oct-07 19:00N 46°00' W 122°51'3 6.7
2017-Oct-07 18:30N 46°03' W 122°53'3 6.4
2017-Oct-07 18:00N 46°06' W 122°56'3 6.7
2017-Oct-07 17:30N 46°08' W 122°60'  

Dump ship's entire track history